createdAt,value
2018-05-13T00:02:50.856Z,49.9
2018-05-13T00:24:14.641Z,47.2
2018-05-13T00:35:00.536Z,59.2
2018-05-13T00:48:10.605Z,59.3
2018-05-13T01:00:02.115Z,61.6
2018-05-13T01:12:27.363Z,51.7
2018-05-13T01:25:24.958Z,60.3
2018-05-13T02:09:50.518Z,61.7
2018-05-13T02:20:05.153Z,52.0
2018-05-13T02:30:50.704Z,54.0
2018-05-13T02:41:03.742Z,58.9
2018-05-13T02:51:18.148Z,42.7
2018-05-13T03:02:04.013Z,58.5
2018-05-13T03:12:18.642Z,58.9
2018-05-13T03:22:32.777Z,51.5
2018-05-13T03:32:46.966Z,54.2
2018-05-13T03:43:33.142Z,82.6
2018-05-13T03:54:19.111Z,63.5
2018-05-13T04:04:31.707Z,49.5
2018-05-13T04:14:43.547Z,73.1
2018-05-13T04:24:57.745Z,57.3
2018-05-13T04:35:10.312Z,81.3
2018-05-13T04:45:25.286Z,57.3
2018-05-13T04:55:42.809Z,53.6
2018-05-13T05:06:28.915Z,57.9
2018-05-13T05:16:46.116Z,59.1
2018-05-13T05:27:40.927Z,52.8
2018-05-13T05:37:57.883Z,45.7
2018-05-13T05:48:12.508Z,42.1
2018-05-13T05:58:27.245Z,55.4
2018-05-13T06:08:41.513Z,47.8
2018-05-13T06:18:57.596Z,48.1
2018-05-13T06:29:11.893Z,45.6
2018-05-13T06:39:57.100Z,54.6
2018-05-13T06:50:42.700Z,60.6
2018-05-13T07:01:28.201Z,54.1
2018-05-13T07:12:09.192Z,56.0
2018-05-13T07:22:23.582Z,44.3
2018-05-13T07:32:37.422Z,37.0
2018-05-13T07:43:24.364Z,44.7
2018-05-13T07:53:36.552Z,40.9
2018-05-13T08:03:48.889Z,36.1
2018-05-13T08:14:34.347Z,45.7
2018-05-13T08:24:50.102Z,47.9
2018-05-13T08:35:04.195Z,32.8
2018-05-13T08:45:49.452Z,38.6
2018-05-13T08:56:35.752Z,33.0
2018-05-13T09:08:08.375Z,34.8
2018-05-13T09:18:23.538Z,31.6
2018-05-13T09:28:37.496Z,27.4
2018-05-13T09:39:24.260Z,26.1
2018-05-13T09:49:36.092Z,26.7
2018-05-13T09:59:50.175Z,25.4
2018-05-13T10:10:04.221Z,25.4
2018-05-13T10:20:18.400Z,25.2
2018-05-13T10:30:30.935Z,24.7
2018-05-13T10:40:44.907Z,24.8
2018-05-13T10:51:30.384Z,24.7
2018-05-13T11:02:16.921Z,23.7
2018-05-13T11:12:32.222Z,24.3
2018-05-13T11:22:49.615Z,25.7
2018-05-13T11:33:04.293Z,26.4
2018-05-13T11:53:39.407Z,25.6
2018-05-13T12:03:53.845Z,27.3
2018-05-13T12:14:39.105Z,29.7
2018-05-13T12:24:56.643Z,26.1
2018-05-13T12:36:28.796Z,28.1
2018-05-13T12:46:42.945Z,28.3
2018-05-13T12:57:28.575Z,29.8
2018-05-13T13:08:14.172Z,29.0
2018-05-13T13:18:26.460Z,42.8
2018-05-13T13:29:12.193Z,45.5
2018-05-13T13:39:59.439Z,41.4
2018-05-13T13:50:13.372Z,37.3
2018-05-13T14:00:27.709Z,35.7
2018-05-13T14:11:12.936Z,36.2
2018-05-13T14:21:59.033Z,51.2
2018-05-13T14:42:30.566Z,63.6
2018-05-13T14:52:44.665Z,52.6
2018-05-13T15:02:58.771Z,54.1
2018-05-13T15:13:13.105Z,46.7
2018-05-13T15:23:27.442Z,48.6
2018-05-13T15:33:54.991Z,54.8
2018-05-13T15:44:42.215Z,52.2
2018-05-13T15:54:56.537Z,53.6
2018-05-13T16:05:08.829Z,49.7
2018-05-13T16:15:23.288Z,65.5
2018-05-13T16:25:37.331Z,53.6
2018-05-13T16:35:51.371Z,47.0
2018-05-13T16:46:06.536Z,52.8
2018-05-13T16:56:20.645Z,57.7
2018-05-13T17:07:54.569Z,52.1
2018-05-13T17:18:08.469Z,46.3
2018-05-13T17:28:24.040Z,52.5
2018-05-13T17:38:38.091Z,51.6
2018-05-13T17:49:23.612Z,57.7
2018-05-13T17:59:39.492Z,51.8
2018-05-13T18:10:24.690Z,59.9
2018-05-13T18:21:10.420Z,59.9
2018-05-13T18:31:25.790Z,59.8
2018-05-13T18:41:41.737Z,54.1
2018-05-13T18:52:27.529Z,65.7
2018-05-13T19:03:13.276Z,73.8
2018-05-13T19:13:59.013Z,84.0
2018-05-13T19:24:13.336Z,56.1
2018-05-13T19:34:28.053Z,52.6
2018-05-13T19:44:41.873Z,60.8
2018-05-13T19:55:27.477Z,78.5
2018-05-13T20:06:13.219Z,67.7
2018-05-13T20:16:27.556Z,59.3
2018-05-13T20:26:41.707Z,64.6
2018-05-13T20:36:55.806Z,60.9
2018-05-13T20:47:42.365Z,82.2
2018-05-13T20:57:53.943Z,64.8
2018-05-13T21:08:06.114Z,69.6
2018-05-13T21:18:51.485Z,85.1
2018-05-13T21:29:36.522Z,104.9
2018-05-13T21:40:22.925Z,78.4
2018-05-13T21:50:34.722Z,68.4
2018-05-13T22:01:20.205Z,78.2
2018-05-13T22:11:34.809Z,64.7
2018-05-13T22:21:48.690Z,62.2
2018-05-13T22:32:03.405Z,60.5
2018-05-13T22:42:17.944Z,55.6
2018-05-13T22:52:31.417Z,63.0
2018-05-13T23:02:42.974Z,57.4
2018-05-13T23:12:57.054Z,67.9
2018-05-13T23:23:11.516Z,66.9
2018-05-13T23:33:23.525Z,63.0
2018-05-13T23:43:37.742Z,59.3
2018-05-13T23:53:51.649Z,61.0
